Airfield :
LOGIN :

Register | Disclaimer

   EN    FR    IT 

 










Legend :    VFR   Marginal VFR   IFR   Intensive IFR   Very Intensive IFR
Visi :
Ceiling :
>= 8 km
>= 3000ft
5 to 8 km
1000 to 3000 ft
1500m to 5 km
500 to 1000 ft
800 to 1500m
200 to 500 ft
< 800m
< 200 ft
Symbols :   Thunderstorms  Fog  Heavy snow  Heavy precipitations  Wind > 20 kt
SIGMETs :     Misc.  Thunderstorms  Icing  Turbulence  Mountain Waves  Volcanic Ashes







- Airport Elevation : 327 ft
- IATA code : BHX
- Download approach charts


EGBB - Birmingham

CURRENT METAR :
  • 152320Z 19006KT CAVOK 07/04 Q1021

EXPIRED METARs :
  • 152250Z 18007KT CAVOK 07/04 Q1021
  • 152220Z 18007KT CAVOK 07/05 Q1021
  • 152150Z 17007KT CAVOK 07/05 Q1021
  • 152120Z 18007KT CAVOK 08/05 Q1021
  • 152050Z 15005KT CAVOK 05/03 Q1021
  • 152020Z 14002KT CAVOK 06/04 Q1022

TAF TAF EGBB
Valid from the 15 at 18:00 until the 16 at 18:00 UTC


151703Z 1518/1618 17008KT CAVOK
PROB30
TEMPO 1518/1601 9000
BECMG 1523/1602 BKN020
TEMPO 1523/1606 BKN012
PROB30
TEMPO 1601/1606 7000 -RADZ BKN006
BECMG 1603/1606 23010KT
TEMPO 1613/1618 BKN014
ATIS : +44 121 780 0910
No reported NOTAMs for that airfield.
1 SIGMET reported for the London FIR (EGTT) :
 
Severe mountain waves
EGTT SIGMET 02 VALID 152300/160300 EGRR
EGTT LONDON FIR SEV MTW FCST WI N5328 E00011 - N5228 W00406 - N5500 W00435 - N5500 E00008 - N5328 E00011 FL030/200 STNR WKN=



MET'MAP, your aeronautical weather chart ! - Copyright ORBIFLY December 2007 - Disclaimer

ORBIFLY MET'MAP TEAM :

Programming & Development : Alexandra Zaïnal
Concept & Development : Baudouin d'Aumeries
Co-Development & Prog : Marc-Olivier Méhu
Technical & hardware support : Manuel Goepfert

Contact : metmap@orbifly.com




SOURCES & CREDITS :

   NOAA